sensor_id;sensor_type;location;lat;lon;timestamp;temperature;humidity
74420;DHT22;62855;50.718;-2.460;2023-08-31T00:01:06;56.48;74.00
74420;DHT22;62855;50.718;-2.460;2023-08-31T00:04:06;56.48;74.00
74420;DHT22;62855;50.718;-2.460;2023-08-31T00:07:06;56.30;75.00
74420;DHT22;62855;50.718;-2.460;2023-08-31T00:10:06;56.30;75.00
74420;DHT22;62855;50.718;-2.460;2023-08-31T00:13:06;56.30;75.00
74420;DHT22;62855;50.718;-2.460;2023-08-31T00:16:07;56.30;75.00
74420;DHT22;62855;50.718;-2.460;2023-08-31T00:19:06;56.30;75.00
74420;DHT22;62855;50.718;-2.460;2023-08-31T00:22:06;56.30;75.00
74420;DHT22;62855;50.718;-2.460;2023-08-31T00:25:07;56.30;75.00
74420;DHT22;62855;50.718;-2.460;2023-08-31T00:28:06;56.30;75.00
74420;DHT22;62855;50.718;-2.460;2023-08-31T00:31:06;56.30;75.00
74420;DHT22;62855;50.718;-2.460;2023-08-31T00:34:06;56.30;75.00
74420;DHT22;62855;50.718;-2.460;2023-08-31T00:37:06;56.12;75.00
74420;DHT22;62855;50.718;-2.460;2023-08-31T00:40:07;56.12;75.00
74420;DHT22;62855;50.718;-2.460;2023-08-31T00:43:06;56.12;75.00
74420;DHT22;62855;50.718;-2.460;2023-08-31T00:46:06;56.12;75.00
74420;DHT22;62855;50.718;-2.460;2023-08-31T00:49:06;56.12;75.00
74420;DHT22;62855;50.718;-2.460;2023-08-31T00:52:07;56.12;75.00
74420;DHT22;62855;50.718;-2.460;2023-08-31T00:55:06;56.12;75.00
74420;DHT22;62855;50.718;-2.460;2023-08-31T00:58:06;56.12;75.00
74420;DHT22;62855;50.718;-2.460;2023-08-31T01:01:12;56.12;75.00
74420;DHT22;62855;50.718;-2.460;2023-08-31T01:04:16;56.12;75.00
74420;DHT22;62855;50.718;-2.460;2023-08-31T01:07:15;56.12;75.00
74420;DHT22;62855;50.718;-2.460;2023-08-31T01:10:14;56.12;75.00
74420;DHT22;62855;50.718;-2.460;2023-08-31T01:13:10;55.94;75.00
74420;DHT22;62855;50.718;-2.460;2023-08-31T01:16:07;55.94;75.00
74420;DHT22;62855;50.718;-2.460;2023-08-31T01:19:17;55.94;75.00
74420;DHT22;62855;50.718;-2.460;2023-08-31T01:22:13;55.94;75.00
74420;DHT22;62855;50.718;-2.460;2023-08-31T01:25:07;56.12;75.00
74420;DHT22;62855;50.718;-2.460;2023-08-31T01:28:07;56.12;74.00
74420;DHT22;62855;50.718;-2.460;2023-08-31T01:31:06;56.12;74.00
74420;DHT22;62855;50.718;-2.460;2023-08-31T01:34:06;56.12;74.00
74420;DHT22;62855;50.718;-2.460;2023-08-31T01:37:10;56.12;74.00
74420;DHT22;62855;50.718;-2.460;2023-08-31T01:40:10;56.12;74.00
74420;DHT22;62855;50.718;-2.460;2023-08-31T01:43:07;56.12;74.00
74420;DHT22;62855;50.718;-2.460;2023-08-31T01:46:07;56.12;73.00
74420;DHT22;62855;50.718;-2.460;2023-08-31T01:49:06;56.12;73.00
74420;DHT22;62855;50.718;-2.460;2023-08-31T01:52:06;56.12;73.00
74420;DHT22;62855;50.718;-2.460;2023-08-31T01:55:06;56.12;73.00
74420;DHT22;62855;50.718;-2.460;2023-08-31T01:58:06;56.12;73.00
74420;DHT22;62855;50.718;-2.460;2023-08-31T02:01:06;56.12;73.00
74420;DHT22;62855;50.718;-2.460;2023-08-31T02:04:06;56.12;73.00
74420;DHT22;62855;50.718;-2.460;2023-08-31T02:07:06;56.12;73.00
74420;DHT22;62855;50.718;-2.460;2023-08-31T02:10:07;56.12;73.00
74420;DHT22;62855;50.718;-2.460;2023-08-31T02:13:06;56.12;73.00
74420;DHT22;62855;50.718;-2.460;2023-08-31T02:16:06;56.12;73.00
74420;DHT22;62855;50.718;-2.460;2023-08-31T02:19:06;56.12;73.00
74420;DHT22;62855;50.718;-2.460;2023-08-31T02:22:06;56.12;73.00
74420;DHT22;62855;50.718;-2.460;2023-08-31T02:25:07;56.12;73.00
74420;DHT22;62855;50.718;-2.460;2023-08-31T02:28:06;56.12;73.00
74420;DHT22;62855;50.718;-2.460;2023-08-31T02:31:06;56.12;73.00
74420;DHT22;62855;50.718;-2.460;2023-08-31T02:34:06;56.12;73.00
74420;DHT22;62855;50.718;-2.460;2023-08-31T02:37:06;56.12;73.00
74420;DHT22;62855;50.718;-2.460;2023-08-31T02:40:07;56.12;73.00
74420;DHT22;62855;50.718;-2.460;2023-08-31T02:43:06;56.12;73.00
74420;DHT22;62855;50.718;-2.460;2023-08-31T02:46:06;56.12;73.00
74420;DHT22;62855;50.718;-2.460;2023-08-31T02:49:06;56.12;74.00
74420;DHT22;62855;50.718;-2.460;2023-08-31T02:52:06;56.12;74.00
74420;DHT22;62855;50.718;-2.460;2023-08-31T02:55:07;56.12;74.00
74420;DHT22;62855;50.718;-2.460;2023-08-31T02:58:06;56.12;74.00
74420;DHT22;62855;50.718;-2.460;2023-08-31T03:01:08;55.94;74.00
74420;DHT22;62855;50.718;-2.460;2023-08-31T03:04:06;55.94;74.00
74420;DHT22;62855;50.718;-2.460;2023-08-31T03:07:06;55.94;74.00
74420;DHT22;62855;50.718;-2.460;2023-08-31T03:10:07;55.94;74.00
74420;DHT22;62855;50.718;-2.460;2023-08-31T03:13:06;55.94;74.00
74420;DHT22;62855;50.718;-2.460;2023-08-31T03:16:06;55.94;75.00
74420;DHT22;62855;50.718;-2.460;2023-08-31T03:19:06;55.94;75.00
74420;DHT22;62855;50.718;-2.460;2023-08-31T03:22:06;55.76;75.00
74420;DHT22;62855;50.718;-2.460;2023-08-31T03:25:07;55.76;75.00
74420;DHT22;62855;50.718;-2.460;2023-08-31T03:28:06;55.76;75.00
74420;DHT22;62855;50.718;-2.460;2023-08-31T03:31:06;55.76;75.00
74420;DHT22;62855;50.718;-2.460;2023-08-31T03:34:06;55.76;75.00
74420;DHT22;62855;50.718;-2.460;2023-08-31T03:37:06;55.76;75.00
74420;DHT22;62855;50.718;-2.460;2023-08-31T03:40:07;55.58;75.00
74420;DHT22;62855;50.718;-2.460;2023-08-31T03:43:06;55.58;75.00
74420;DHT22;62855;50.718;-2.460;2023-08-31T03:46:06;55.58;76.00
74420;DHT22;62855;50.718;-2.460;2023-08-31T03:49:06;55.58;76.00
74420;DHT22;62855;50.718;-2.460;2023-08-31T03:52:06;55.58;76.00
74420;DHT22;62855;50.718;-2.460;2023-08-31T03:55:07;55.58;76.00
74420;DHT22;62855;50.718;-2.460;2023-08-31T03:58:06;55.40;76.00
74420;DHT22;62855;50.718;-2.460;2023-08-31T04:01:06;55.40;77.00
74420;DHT22;62855;50.718;-2.460;2023-08-31T04:04:06;55.22;77.00
74420;DHT22;62855;50.718;-2.460;2023-08-31T04:07:06;55.22;77.00
74420;DHT22;62855;50.718;-2.460;2023-08-31T04:10:07;55.04;77.00
74420;DHT22;62855;50.718;-2.460;2023-08-31T04:13:06;54.86;78.00
74420;DHT22;62855;50.718;-2.460;2023-08-31T04:16:06;54.86;78.00
74420;DHT22;62855;50.718;-2.460;2023-08-31T04:19:06;54.68;79.00
74420;DHT22;62855;50.718;-2.460;2023-08-31T04:22:06;54.68;79.00
74420;DHT22;62855;50.718;-2.460;2023-08-31T04:25:07;54.68;80.00
74420;DHT22;62855;50.718;-2.460;2023-08-31T04:28:06;54.50;80.00
74420;DHT22;62855;50.718;-2.460;2023-08-31T04:31:06;54.50;80.00
74420;DHT22;62855;50.718;-2.460;2023-08-31T04:34:06;54.50;80.00
74420;DHT22;62855;50.718;-2.460;2023-08-31T04:37:06;54.50;80.00
74420;DHT22;62855;50.718;-2.460;2023-08-31T04:40:07;54.32;80.00
74420;DHT22;62855;50.718;-2.460;2023-08-31T04:43:06;54.32;81.00
74420;DHT22;62855;50.718;-2.460;2023-08-31T04:46:06;54.32;81.00
74420;DHT22;62855;50.718;-2.460;2023-08-31T04:49:06;54.32;81.00
74420;DHT22;62855;50.718;-2.460;2023-08-31T04:52:06;54.32;81.00
74420;DHT22;62855;50.718;-2.460;2023-08-31T04:55:06;54.32;82.00
74420;DHT22;62855;50.718;-2.460;2023-08-31T04:58:06;54.14;82.00
74420;DHT22;62855;50.718;-2.460;2023-08-31T05:01:06;54.14;82.00
74420;DHT22;62855;50.718;-2.460;2023-08-31T05:04:06;53.96;82.00
74420;DHT22;62855;50.718;-2.460;2023-08-31T05:07:06;53.96;83.00
74420;DHT22;62855;50.718;-2.460;2023-08-31T05:10:07;53.78;83.00
74420;DHT22;62855;50.718;-2.460;2023-08-31T05:13:06;53.60;83.00
74420;DHT22;62855;50.718;-2.460;2023-08-31T05:16:05;53.60;83.00
74420;DHT22;62855;50.718;-2.460;2023-08-31T05:19:06;53.60;84.00
74420;DHT22;62855;50.718;-2.460;2023-08-31T05:22:06;53.60;84.00
74420;DHT22;62855;50.718;-2.460;2023-08-31T05:25:07;53.42;84.00
74420;DHT22;62855;50.718;-2.460;2023-08-31T05:28:06;53.42;84.00
74420;DHT22;62855;50.718;-2.460;2023-08-31T05:31:06;53.42;85.00
74420;DHT22;62855;50.718;-2.460;2023-08-31T05:34:08;53.42;85.00
74420;DHT22;62855;50.718;-2.460;2023-08-31T05:37:06;53.60;85.00
74420;DHT22;62855;50.718;-2.460;2023-08-31T05:40:07;53.60;86.00
74420;DHT22;62855;50.718;-2.460;2023-08-31T05:43:06;53.78;85.00
74420;DHT22;62855;50.718;-2.460;2023-08-31T05:46:06;53.78;85.00
74420;DHT22;62855;50.718;-2.460;2023-08-31T05:49:06;53.78;85.00
74420;DHT22;62855;50.718;-2.460;2023-08-31T05:52:06;53.78;86.00
74420;DHT22;62855;50.718;-2.460;2023-08-31T05:55:07;53.78;86.00
74420;DHT22;62855;50.718;-2.460;2023-08-31T05:58:06;53.78;86.00
74420;DHT22;62855;50.718;-2.460;2023-08-31T06:01:06;53.96;86.00
74420;DHT22;62855;50.718;-2.460;2023-08-31T06:04:06;53.96;86.00
74420;DHT22;62855;50.718;-2.460;2023-08-31T06:07:06;53.96;87.00
74420;DHT22;62855;50.718;-2.460;2023-08-31T06:10:07;53.96;87.00
74420;DHT22;62855;50.718;-2.460;2023-08-31T06:13:06;53.96;87.00
74420;DHT22;62855;50.718;-2.460;2023-08-31T06:16:06;53.96;87.00
74420;DHT22;62855;50.718;-2.460;2023-08-31T06:19:06;53.96;87.00
74420;DHT22;62855;50.718;-2.460;2023-08-31T06:22:06;53.96;87.00
74420;DHT22;62855;50.718;-2.460;2023-08-31T06:25:06;53.96;87.00
74420;DHT22;62855;50.718;-2.460;2023-08-31T06:28:06;53.96;88.00
74420;DHT22;62855;50.718;-2.460;2023-08-31T06:31:06;53.96;88.00
74420;DHT22;62855;50.718;-2.460;2023-08-31T06:34:06;53.96;88.00
74420;DHT22;62855;50.718;-2.460;2023-08-31T06:37:06;53.96;88.00
74420;DHT22;62855;50.718;-2.460;2023-08-31T06:40:07;53.96;88.00
74420;DHT22;62855;50.718;-2.460;2023-08-31T06:43:06;53.78;88.00
74420;DHT22;62855;50.718;-2.460;2023-08-31T06:46:07;53.78;88.00
74420;DHT22;62855;50.718;-2.460;2023-08-31T06:49:06;53.78;88.00
74420;DHT22;62855;50.718;-2.460;2023-08-31T06:52:06;53.60;87.00
74420;DHT22;62855;50.718;-2.460;2023-08-31T06:55:07;53.42;91.00
74420;DHT22;62855;50.718;-2.460;2023-08-31T06:58:06;53.42;90.00
74420;DHT22;62855;50.718;-2.460;2023-08-31T07:01:06;53.42;90.00
74420;DHT22;62855;50.718;-2.460;2023-08-31T07:04:06;53.24;90.00
74420;DHT22;62855;50.718;-2.460;2023-08-31T07:07:07;53.24;90.00
74420;DHT22;62855;50.718;-2.460;2023-08-31T07:10:06;53.24;90.00
74420;DHT22;62855;50.718;-2.460;2023-08-31T07:13:06;53.42;90.00
74420;DHT22;62855;50.718;-2.460;2023-08-31T07:16:06;53.42;89.00
74420;DHT22;62855;50.718;-2.460;2023-08-31T07:19:06;53.42;89.00
74420;DHT22;62855;50.718;-2.460;2023-08-31T07:22:06;53.24;89.00
74420;DHT22;62855;50.718;-2.460;2023-08-31T07:25:07;53.24;89.00
74420;DHT22;62855;50.718;-2.460;2023-08-31T07:28:06;53.06;89.00
74420;DHT22;62855;50.718;-2.460;2023-08-31T07:31:07;53.06;89.00
74420;DHT22;62855;50.718;-2.460;2023-08-31T07:34:06;53.06;89.00
74420;DHT22;62855;50.718;-2.460;2023-08-31T07:37:06;53.06;89.00
74420;DHT22;62855;50.718;-2.460;2023-08-31T07:40:07;53.06;89.00
74420;DHT22;62855;50.718;-2.460;2023-08-31T07:43:06;53.06;89.00
74420;DHT22;62855;50.718;-2.460;2023-08-31T07:46:06;53.06;89.00
74420;DHT22;62855;50.718;-2.460;2023-08-31T07:49:06;53.06;90.00
74420;DHT22;62855;50.718;-2.460;2023-08-31T07:52:06;53.06;90.00
74420;DHT22;62855;50.718;-2.460;2023-08-31T07:55:06;53.06;90.00
74420;DHT22;62855;50.718;-2.460;2023-08-31T07:58:07;53.06;90.00
74420;DHT22;62855;50.718;-2.460;2023-08-31T08:01:06;53.06;90.00
74420;DHT22;62855;50.718;-2.460;2023-08-31T08:04:06;53.06;90.00
74420;DHT22;62855;50.718;-2.460;2023-08-31T08:07:06;53.24;90.00
74420;DHT22;62855;50.718;-2.460;2023-08-31T08:10:07;53.24;91.00
74420;DHT22;62855;50.718;-2.460;2023-08-31T08:13:06;53.24;91.00
74420;DHT22;62855;50.718;-2.460;2023-08-31T08:16:07;53.24;91.00
74420;DHT22;62855;50.718;-2.460;2023-08-31T08:19:06;53.24;91.00
74420;DHT22;62855;50.718;-2.460;2023-08-31T08:22:06;53.24;91.00
74420;DHT22;62855;50.718;-2.460;2023-08-31T08:25:07;53.24;91.00
74420;DHT22;62855;50.718;-2.460;2023-08-31T08:28:06;53.24;91.00
74420;DHT22;62855;50.718;-2.460;2023-08-31T08:31:06;53.24;91.00
74420;DHT22;62855;50.718;-2.460;2023-08-31T08:34:06;53.24;92.00
74420;DHT22;62855;50.718;-2.460;2023-08-31T08:37:06;53.24;92.00
74420;DHT22;62855;50.718;-2.460;2023-08-31T08:40:07;53.24;92.00
74420;DHT22;62855;50.718;-2.460;2023-08-31T08:43:07;53.42;92.00
74420;DHT22;62855;50.718;-2.460;2023-08-31T08:46:06;53.42;92.00
74420;DHT22;62855;50.718;-2.460;2023-08-31T08:49:07;53.42;92.00
74420;DHT22;62855;50.718;-2.460;2023-08-31T08:52:06;53.42;92.00
74420;DHT22;62855;50.718;-2.460;2023-08-31T08:55:08;53.42;93.00
74420;DHT22;62855;50.718;-2.460;2023-08-31T08:58:06;53.42;93.00
74420;DHT22;62855;50.718;-2.460;2023-08-31T09:01:07;53.42;93.00
74420;DHT22;62855;50.718;-2.460;2023-08-31T09:04:06;53.60;90.00
74420;DHT22;62855;50.718;-2.460;2023-08-31T09:07:06;53.60;90.00
74420;DHT22;62855;50.718;-2.460;2023-08-31T09:10:06;53.78;91.00
74420;DHT22;62855;50.718;-2.460;2023-08-31T09:13:07;53.78;91.00
74420;DHT22;62855;50.718;-2.460;2023-08-31T09:16:06;53.96;91.00
74420;DHT22;62855;50.718;-2.460;2023-08-31T09:19:17;53.96;91.00
74420;DHT22;62855;50.718;-2.460;2023-08-31T09:22:06;53.96;91.00
74420;DHT22;62855;50.718;-2.460;2023-08-31T09:25:08;53.96;91.00
74420;DHT22;62855;50.718;-2.460;2023-08-31T09:28:07;54.14;91.00
74420;DHT22;62855;50.718;-2.460;2023-08-31T09:31:07;54.14;94.00
74420;DHT22;62855;50.718;-2.460;2023-08-31T09:34:06;54.14;94.00
74420;DHT22;62855;50.718;-2.460;2023-08-31T09:37:06;54.32;94.00
74420;DHT22;62855;50.718;-2.460;2023-08-31T09:40:07;54.32;94.00
74420;DHT22;62855;50.718;-2.460;2023-08-31T09:43:06;54.32;94.00
74420;DHT22;62855;50.718;-2.460;2023-08-31T09:46:06;54.32;94.00
74420;DHT22;62855;50.718;-2.460;2023-08-31T09:49:07;54.32;94.00
74420;DHT22;62855;50.718;-2.460;2023-08-31T09:52:07;54.32;94.00
74420;DHT22;62855;50.718;-2.460;2023-08-31T09:55:07;54.50;95.00
74420;DHT22;62855;50.718;-2.460;2023-08-31T09:58:07;54.50;95.00
74420;DHT22;62855;50.718;-2.460;2023-08-31T10:01:07;54.68;95.00
74420;DHT22;62855;50.718;-2.460;2023-08-31T10:04:07;54.68;95.00
74420;DHT22;62855;50.718;-2.460;2023-08-31T10:07:08;54.68;95.00
74420;DHT22;62855;50.718;-2.460;2023-08-31T10:10:07;54.68;95.00
74420;DHT22;62855;50.718;-2.460;2023-08-31T10:13:06;54.68;95.00
74420;DHT22;62855;50.718;-2.460;2023-08-31T10:16:07;54.68;95.00
74420;DHT22;62855;50.718;-2.460;2023-08-31T10:19:06;54.86;95.00
74420;DHT22;62855;50.718;-2.460;2023-08-31T10:22:07;54.86;96.00
74420;DHT22;62855;50.718;-2.460;2023-08-31T10:25:07;55.04;96.00
74420;DHT22;62855;50.718;-2.460;2023-08-31T10:28:16;55.04;96.00
74420;DHT22;62855;50.718;-2.460;2023-08-31T10:31:07;55.04;96.00
74420;DHT22;62855;50.718;-2.460;2023-08-31T10:34:06;55.04;96.00
74420;DHT22;62855;50.718;-2.460;2023-08-31T10:37:19;55.22;96.00
74420;DHT22;62855;50.718;-2.460;2023-08-31T10:40:07;55.22;96.00
74420;DHT22;62855;50.718;-2.460;2023-08-31T10:43:16;55.22;96.00
74420;DHT22;62855;50.718;-2.460;2023-08-31T10:46:14;55.40;96.00
74420;DHT22;62855;50.718;-2.460;2023-08-31T10:49:13;55.58;97.00
74420;DHT22;62855;50.718;-2.460;2023-08-31T10:52:16;55.58;97.00
74420;DHT22;62855;50.718;-2.460;2023-08-31T10:55:07;55.76;97.00
74420;DHT22;62855;50.718;-2.460;2023-08-31T10:58:09;55.76;97.00
74420;DHT22;62855;50.718;-2.460;2023-08-31T11:01:06;56.12;97.00
74420;DHT22;62855;50.718;-2.460;2023-08-31T11:04:09;56.12;97.00
74420;DHT22;62855;50.718;-2.460;2023-08-31T11:07:13;56.30;98.00
74420;DHT22;62855;50.718;-2.460;2023-08-31T11:10:11;56.48;98.00
74420;DHT22;62855;50.718;-2.460;2023-08-31T11:13:15;57.02;98.00
74420;DHT22;62855;50.718;-2.460;2023-08-31T11:16:06;57.20;98.00
74420;DHT22;62855;50.718;-2.460;2023-08-31T11:19:06;57.20;98.00
74420;DHT22;62855;50.718;-2.460;2023-08-31T11:22:06;57.20;98.00
74420;DHT22;62855;50.718;-2.460;2023-08-31T11:25:07;57.38;99.00
74420;DHT22;62855;50.718;-2.460;2023-08-31T11:28:06;57.38;99.00
74420;DHT22;62855;50.718;-2.460;2023-08-31T11:31:06;57.38;99.00
74420;DHT22;62855;50.718;-2.460;2023-08-31T11:34:06;57.38;99.00
74420;DHT22;62855;50.718;-2.460;2023-08-31T11:37:06;57.38;99.00
74420;DHT22;62855;50.718;-2.460;2023-08-31T11:40:09;57.38;99.00
74420;DHT22;62855;50.718;-2.460;2023-08-31T11:43:07;57.38;99.00
74420;DHT22;62855;50.718;-2.460;2023-08-31T11:46:07;57.20;99.00
74420;DHT22;62855;50.718;-2.460;2023-08-31T11:49:07;57.20;99.00
74420;DHT22;62855;50.718;-2.460;2023-08-31T11:52:06;57.38;99.00
74420;DHT22;62855;50.718;-2.460;2023-08-31T11:55:11;57.74;99.00
74420;DHT22;62855;50.718;-2.460;2023-08-31T11:58:07;57.74;99.00
74420;DHT22;62855;50.718;-2.460;2023-08-31T12:01:06;57.92;99.00
74420;DHT22;62855;50.718;-2.460;2023-08-31T12:04:11;58.28;99.00
74420;DHT22;62855;50.718;-2.460;2023-08-31T12:07:06;58.46;99.00
74420;DHT22;62855;50.718;-2.460;2023-08-31T12:10:07;58.64;99.00
74420;DHT22;62855;50.718;-2.460;2023-08-31T12:13:08;59.00;99.00
74420;DHT22;62855;50.718;-2.460;2023-08-31T12:16:11;59.18;99.00
74420;DHT22;62855;50.718;-2.460;2023-08-31T12:19:06;59.18;99.00
74420;DHT22;62855;50.718;-2.460;2023-08-31T12:22:06;59.36;99.00
74420;DHT22;62855;50.718;-2.460;2023-08-31T12:25:06;59.54;99.00
74420;DHT22;62855;50.718;-2.460;2023-08-31T12:28:06;59.18;99.00
74420;DHT22;62855;50.718;-2.460;2023-08-31T12:31:06;59.18;99.00
74420;DHT22;62855;50.718;-2.460;2023-08-31T12:34:06;59.36;99.00
74420;DHT22;62855;50.718;-2.460;2023-08-31T12:37:06;59.18;99.00
74420;DHT22;62855;50.718;-2.460;2023-08-31T12:40:07;59.36;99.00
74420;DHT22;62855;50.718;-2.460;2023-08-31T12:43:06;59.18;99.00
74420;DHT22;62855;50.718;-2.460;2023-08-31T12:46:06;58.82;99.00
74420;DHT22;62855;50.718;-2.460;2023-08-31T12:49:06;58.82;99.00
74420;DHT22;62855;50.718;-2.460;2023-08-31T12:52:06;59.00;99.00
74420;DHT22;62855;50.718;-2.460;2023-08-31T12:55:06;59.00;99.00
74420;DHT22;62855;50.718;-2.460;2023-08-31T12:58:06;59.18;99.00
74420;DHT22;62855;50.718;-2.460;2023-08-31T13:01:06;59.18;98.00
74420;DHT22;62855;50.718;-2.460;2023-08-31T13:04:06;59.00;98.00
74420;DHT22;62855;50.718;-2.460;2023-08-31T13:07:06;59.00;98.00
74420;DHT22;62855;50.718;-2.460;2023-08-31T13:10:07;59.18;98.00
74420;DHT22;62855;50.718;-2.460;2023-08-31T13:13:06;59.36;98.00
74420;DHT22;62855;50.718;-2.460;2023-08-31T13:16:05;59.36;97.00
74420;DHT22;62855;50.718;-2.460;2023-08-31T13:19:06;59.36;97.00
74420;DHT22;62855;50.718;-2.460;2023-08-31T13:22:06;59.54;97.00
74420;DHT22;62855;50.718;-2.460;2023-08-31T13:25:07;59.72;97.00
74420;DHT22;62855;50.718;-2.460;2023-08-31T13:28:06;59.72;97.00
74420;DHT22;62855;50.718;-2.460;2023-08-31T13:31:07;59.90;97.00
74420;DHT22;62855;50.718;-2.460;2023-08-31T13:34:06;60.08;97.00
74420;DHT22;62855;50.718;-2.460;2023-08-31T13:37:06;60.26;96.00
74420;DHT22;62855;50.718;-2.460;2023-08-31T13:40:07;60.80;96.00
74420;DHT22;62855;50.718;-2.460;2023-08-31T13:43:06;61.34;97.00
74420;DHT22;62855;50.718;-2.460;2023-08-31T13:46:06;61.88;97.00
74420;DHT22;62855;50.718;-2.460;2023-08-31T13:49:06;62.24;97.00
74420;DHT22;62855;50.718;-2.460;2023-08-31T13:52:06;62.42;95.00
74420;DHT22;62855;50.718;-2.460;2023-08-31T13:55:07;62.96;95.00
74420;DHT22;62855;50.718;-2.460;2023-08-31T13:58:07;63.32;95.00
74420;DHT22;62855;50.718;-2.460;2023-08-31T14:01:06;63.50;94.00
74420;DHT22;62855;50.718;-2.460;2023-08-31T14:04:06;63.50;93.00
74420;DHT22;62855;50.718;-2.460;2023-08-31T14:07:06;63.50;91.00
74420;DHT22;62855;50.718;-2.460;2023-08-31T14:10:07;63.68;90.00
74420;DHT22;62855;50.718;-2.460;2023-08-31T14:13:06;63.86;89.00
74420;DHT22;62855;50.718;-2.460;2023-08-31T14:16:06;63.86;87.00
74420;DHT22;62855;50.718;-2.460;2023-08-31T14:19:06;63.86;86.00
74420;DHT22;62855;50.718;-2.460;2023-08-31T14:22:06;64.40;85.00
74420;DHT22;62855;50.718;-2.460;2023-08-31T14:25:07;64.94;85.00
74420;DHT22;62855;50.718;-2.460;2023-08-31T14:28:06;65.48;85.00
74420;DHT22;62855;50.718;-2.460;2023-08-31T14:31:06;65.84;84.00
74420;DHT22;62855;50.718;-2.460;2023-08-31T14:34:06;66.02;83.00
74420;DHT22;62855;50.718;-2.460;2023-08-31T14:37:07;66.20;82.00
74420;DHT22;62855;50.718;-2.460;2023-08-31T14:40:07;66.20;81.00
74420;DHT22;62855;50.718;-2.460;2023-08-31T14:43:06;66.38;81.00
74420;DHT22;62855;50.718;-2.460;2023-08-31T14:46:06;66.38;81.00
74420;DHT22;62855;50.718;-2.460;2023-08-31T14:49:06;66.38;80.00
74420;DHT22;62855;50.718;-2.460;2023-08-31T14:52:06;66.56;80.00
74420;DHT22;62855;50.718;-2.460;2023-08-31T14:55:06;66.74;80.00
74420;DHT22;62855;50.718;-2.460;2023-08-31T14:58:06;66.74;80.00
74420;DHT22;62855;50.718;-2.460;2023-08-31T15:01:06;66.74;80.00
74420;DHT22;62855;50.718;-2.460;2023-08-31T15:04:06;66.56;79.00
74420;DHT22;62855;50.718;-2.460;2023-08-31T15:07:06;66.38;79.00
74420;DHT22;62855;50.718;-2.460;2023-08-31T15:10:07;66.20;78.00
74420;DHT22;62855;50.718;-2.460;2023-08-31T15:13:06;66.02;79.00
74420;DHT22;62855;50.718;-2.460;2023-08-31T15:16:06;65.84;79.00
74420;DHT22;62855;50.718;-2.460;2023-08-31T15:19:06;65.84;80.00
74420;DHT22;62855;50.718;-2.460;2023-08-31T15:22:06;65.66;81.00
74420;DHT22;62855;50.718;-2.460;2023-08-31T15:25:06;65.30;81.00
74420;DHT22;62855;50.718;-2.460;2023-08-31T15:28:07;64.94;81.00
74420;DHT22;62855;50.718;-2.460;2023-08-31T15:31:06;64.94;82.00
74420;DHT22;62855;50.718;-2.460;2023-08-31T15:34:09;64.76;82.00
74420;DHT22;62855;50.718;-2.460;2023-08-31T15:37:07;64.58;83.00
74420;DHT22;62855;50.718;-2.460;2023-08-31T15:40:07;64.58;83.00
74420;DHT22;62855;50.718;-2.460;2023-08-31T15:43:06;64.40;83.00
74420;DHT22;62855;50.718;-2.460;2023-08-31T15:46:06;64.40;83.00
74420;DHT22;62855;50.718;-2.460;2023-08-31T15:49:06;64.40;84.00
74420;DHT22;62855;50.718;-2.460;2023-08-31T15:52:06;64.22;84.00
74420;DHT22;62855;50.718;-2.460;2023-08-31T15:55:07;64.04;84.00
74420;DHT22;62855;50.718;-2.460;2023-08-31T15:58:07;64.04;84.00
74420;DHT22;62855;50.718;-2.460;2023-08-31T16:01:09;64.04;85.00
74420;DHT22;62855;50.718;-2.460;2023-08-31T16:04:06;64.04;85.00
74420;DHT22;62855;50.718;-2.460;2023-08-31T16:07:06;64.04;86.00
74420;DHT22;62855;50.718;-2.460;2023-08-31T16:10:07;63.86;86.00
74420;DHT22;62855;50.718;-2.460;2023-08-31T16:13:06;63.68;87.00
74420;DHT22;62855;50.718;-2.460;2023-08-31T16:16:07;63.68;87.00
74420;DHT22;62855;50.718;-2.460;2023-08-31T16:19:06;63.50;87.00
74420;DHT22;62855;50.718;-2.460;2023-08-31T16:22:06;63.50;88.00
74420;DHT22;62855;50.718;-2.460;2023-08-31T16:25:07;63.32;88.00
74420;DHT22;62855;50.718;-2.460;2023-08-31T16:28:06;63.32;89.00
74420;DHT22;62855;50.718;-2.460;2023-08-31T16:31:06;63.32;89.00
74420;DHT22;62855;50.718;-2.460;2023-08-31T16:34:06;63.32;90.00
74420;DHT22;62855;50.718;-2.460;2023-08-31T16:37:07;63.32;90.00
74420;DHT22;62855;50.718;-2.460;2023-08-31T16:40:07;63.32;90.00
74420;DHT22;62855;50.718;-2.460;2023-08-31T16:43:07;63.32;91.00
74420;DHT22;62855;50.718;-2.460;2023-08-31T16:46:06;63.32;91.00
74420;DHT22;62855;50.718;-2.460;2023-08-31T16:49:06;63.32;91.00
74420;DHT22;62855;50.718;-2.460;2023-08-31T16:52:06;63.14;91.00
74420;DHT22;62855;50.718;-2.460;2023-08-31T16:55:06;63.14;92.00
74420;DHT22;62855;50.718;-2.460;2023-08-31T16:58:06;62.96;92.00
74420;DHT22;62855;50.718;-2.460;2023-08-31T17:01:06;62.96;92.00
74420;DHT22;62855;50.718;-2.460;2023-08-31T17:04:06;62.96;92.00
74420;DHT22;62855;50.718;-2.460;2023-08-31T17:07:07;62.78;93.00
74420;DHT22;62855;50.718;-2.460;2023-08-31T17:10:07;62.78;93.00
74420;DHT22;62855;50.718;-2.460;2023-08-31T17:13:06;62.78;93.00
74420;DHT22;62855;50.718;-2.460;2023-08-31T17:16:10;62.60;93.00
74420;DHT22;62855;50.718;-2.460;2023-08-31T17:19:06;62.60;94.00
74420;DHT22;62855;50.718;-2.460;2023-08-31T17:22:06;62.60;94.00
74420;DHT22;62855;50.718;-2.460;2023-08-31T17:25:07;62.60;94.00
74420;DHT22;62855;50.718;-2.460;2023-08-31T17:28:06;62.60;94.00
74420;DHT22;62855;50.718;-2.460;2023-08-31T17:31:06;62.60;95.00
74420;DHT22;62855;50.718;-2.460;2023-08-31T17:34:06;62.60;95.00
74420;DHT22;62855;50.718;-2.460;2023-08-31T17:37:06;62.60;95.00
74420;DHT22;62855;50.718;-2.460;2023-08-31T17:40:07;62.60;95.00
74420;DHT22;62855;50.718;-2.460;2023-08-31T17:43:06;62.60;95.00
74420;DHT22;62855;50.718;-2.460;2023-08-31T17:46:06;62.60;95.00
74420;DHT22;62855;50.718;-2.460;2023-08-31T17:49:06;62.42;96.00
74420;DHT22;62855;50.718;-2.460;2023-08-31T17:52:06;62.42;96.00
74420;DHT22;62855;50.718;-2.460;2023-08-31T17:55:07;62.42;96.00
74420;DHT22;62855;50.718;-2.460;2023-08-31T17:58:06;62.42;96.00
74420;DHT22;62855;50.718;-2.460;2023-08-31T18:01:06;62.42;96.00
74420;DHT22;62855;50.718;-2.460;2023-08-31T18:04:06;62.42;96.00
74420;DHT22;62855;50.718;-2.460;2023-08-31T18:07:06;62.42;96.00
74420;DHT22;62855;50.718;-2.460;2023-08-31T18:10:07;62.42;97.00
74420;DHT22;62855;50.718;-2.460;2023-08-31T18:13:06;62.42;97.00
74420;DHT22;62855;50.718;-2.460;2023-08-31T18:16:06;62.42;97.00
74420;DHT22;62855;50.718;-2.460;2023-08-31T18:19:07;62.24;99.00
74420;DHT22;62855;50.718;-2.460;2023-08-31T18:22:06;62.24;99.00
74420;DHT22;62855;50.718;-2.460;2023-08-31T18:25:07;62.24;99.00
74420;DHT22;62855;50.718;-2.460;2023-08-31T18:28:06;62.24;99.00
74420;DHT22;62855;50.718;-2.460;2023-08-31T18:31:06;62.24;99.00
74420;DHT22;62855;50.718;-2.460;2023-08-31T18:34:06;62.24;99.00
74420;DHT22;62855;50.718;-2.460;2023-08-31T18:37:06;62.24;99.00